sensor_id;sensor_type;location;lat;lon;timestamp;pressure;altitude;pressure_sealevel;temperature;humidity
46081;BME280;31821;51.880;-0.518;2022-11-21T00:01:26;99775.97;;;7.70;61.31
46081;BME280;31821;51.880;-0.518;2022-11-21T00:03:52;99772.81;;;7.63;62.05
46081;BME280;31821;51.880;-0.518;2022-11-21T00:06:18;99788.19;;;7.92;61.35
46081;BME280;31821;51.880;-0.518;2022-11-21T00:08:45;99695.78;;;7.45;60.82
46081;BME280;31821;51.880;-0.518;2022-11-21T00:11:10;99761.16;;;7.99;61.26
46081;BME280;31821;51.880;-0.518;2022-11-21T00:13:37;99706.78;;;7.59;60.70
46081;BME280;31821;51.880;-0.518;2022-11-21T00:16:04;99776.72;;;8.04;60.52
46081;BME280;31821;51.880;-0.518;2022-11-21T00:18:30;99760.34;;;8.13;60.42
46081;BME280;31821;51.880;-0.518;2022-11-21T00:20:55;99758.50;;;8.22;60.17
46081;BME280;31821;51.880;-0.518;2022-11-21T00:23:21;99736.44;;;7.85;60.54
46081;BME280;31821;51.880;-0.518;2022-11-21T00:25:46;99735.13;;;7.97;59.98
46081;BME280;31821;51.880;-0.518;2022-11-21T00:28:11;99824.72;;;8.34;60.70
46081;BME280;31821;51.880;-0.518;2022-11-21T00:30:37;99794.72;;;8.24;60.42
46081;BME280;31821;51.880;-0.518;2022-11-21T00:33:02;99729.03;;;7.86;60.25
46081;BME280;31821;51.880;-0.518;2022-11-21T00:35:29;99802.63;;;8.39;59.96
46081;BME280;31821;51.880;-0.518;2022-11-21T00:37:55;99808.78;;;8.08;60.24
46081;BME280;31821;51.880;-0.518;2022-11-21T00:40:21;99780.88;;;7.73;61.19
46081;BME280;31821;51.880;-0.518;2022-11-21T00:42:46;99822.31;;;8.19;60.98
46081;BME280;31821;51.880;-0.518;2022-11-21T00:45:12;99754.38;;;7.36;61.25
46081;BME280;31821;51.880;-0.518;2022-11-21T00:47:37;99710.50;;;7.36;61.42
46081;BME280;31821;51.880;-0.518;2022-11-21T00:50:03;99671.22;;;7.07;61.15
46081;BME280;31821;51.880;-0.518;2022-11-21T00:52:29;99752.91;;;7.85;60.76
46081;BME280;31821;51.880;-0.518;2022-11-21T00:54:54;99761.59;;;8.06;60.50
46081;BME280;31821;51.880;-0.518;2022-11-21T00:57:20;99810.59;;;8.41;60.27
46081;BME280;31821;51.880;-0.518;2022-11-21T00:59:45;99819.75;;;8.36;59.71
46081;BME280;31821;51.880;-0.518;2022-11-21T01:02:11;99804.59;;;8.11;60.76
46081;BME280;31821;51.880;-0.518;2022-11-21T01:04:38;99742.97;;;8.03;60.83
46081;BME280;31821;51.880;-0.518;2022-11-21T01:07:03;99737.28;;;8.00;60.70
46081;BME280;31821;51.880;-0.518;2022-11-21T01:09:28;99763.28;;;8.16;61.64
46081;BME280;31821;51.880;-0.518;2022-11-21T01:11:55;99757.59;;;8.13;61.19
46081;BME280;31821;51.880;-0.518;2022-11-21T01:14:20;99723.22;;;8.15;60.14
46081;BME280;31821;51.880;-0.518;2022-11-21T01:16:46;99756.56;;;8.50;59.43
46081;BME280;31821;51.880;-0.518;2022-11-21T01:19:11;99750.47;;;8.26;60.36
46081;BME280;31821;51.880;-0.518;2022-11-21T01:21:37;99775.81;;;8.50;60.49
46081;BME280;31821;51.880;-0.518;2022-11-21T01:24:03;99679.72;;;7.81;59.79
46081;BME280;31821;51.880;-0.518;2022-11-21T01:26:30;99732.38;;;8.11;60.76
46081;BME280;31821;51.880;-0.518;2022-11-21T01:28:57;99786.97;;;8.40;60.73
46081;BME280;31821;51.880;-0.518;2022-11-21T01:31:26;99699.06;;;7.75;60.68
46081;BME280;31821;51.880;-0.518;2022-11-21T01:33:52;99787.09;;;8.49;60.04
46081;BME280;31821;51.880;-0.518;2022-11-21T01:36:21;99724.94;;;8.25;59.80
46081;BME280;31821;51.880;-0.518;2022-11-21T01:38:49;99701.94;;;8.21;59.80
46081;BME280;31821;51.880;-0.518;2022-11-21T01:41:18;99733.97;;;8.26;59.50
46081;BME280;31821;51.880;-0.518;2022-11-21T01:43:44;99692.81;;;8.12;59.86
46081;BME280;31821;51.880;-0.518;2022-11-21T01:46:13;99749.03;;;8.56;59.07
46081;BME280;31821;51.880;-0.518;2022-11-21T01:48:45;99770.16;;;8.69;59.10
46081;BME280;31821;51.880;-0.518;2022-11-21T01:51:14;99719.22;;;8.35;59.23
46081;BME280;31821;51.880;-0.518;2022-11-21T01:53:47;99684.78;;;8.15;59.24
46081;BME280;31821;51.880;-0.518;2022-11-21T01:56:15;99677.03;;;8.17;59.70
46081;BME280;31821;51.880;-0.518;2022-11-21T01:58:42;99718.63;;;8.38;58.92
46081;BME280;31821;51.880;-0.518;2022-11-21T02:01:08;99666.75;;;8.23;59.34
46081;BME280;31821;51.880;-0.518;2022-11-21T02:03:36;99692.00;;;8.11;58.95
46081;BME280;31821;51.880;-0.518;2022-11-21T02:06:03;99747.59;;;8.59;59.15
46081;BME280;31821;51.880;-0.518;2022-11-21T02:08:30;99684.97;;;8.33;59.38
46081;BME280;31821;51.880;-0.518;2022-11-21T02:13:45;99703.94;;;8.43;59.72
46081;BME280;31821;51.880;-0.518;2022-11-21T02:16:10;99721.88;;;8.54;59.69
46081;BME280;31821;51.880;-0.518;2022-11-21T02:18:36;99648.03;;;8.25;58.83
46081;BME280;31821;51.880;-0.518;2022-11-21T02:21:10;99660.00;;;8.43;59.00
46081;BME280;31821;51.880;-0.518;2022-11-21T02:23:49;99686.13;;;8.77;59.20
46081;BME280;31821;51.880;-0.518;2022-11-21T02:26:17;99614.91;;;8.44;58.59
46081;BME280;31821;51.880;-0.518;2022-11-21T02:28:43;99561.19;;;8.15;58.59
46081;BME280;31821;51.880;-0.518;2022-11-21T02:31:08;99651.72;;;8.57;58.55
46081;BME280;31821;51.880;-0.518;2022-11-21T02:33:34;99630.50;;;8.35;58.62
46081;BME280;31821;51.880;-0.518;2022-11-21T02:36:00;99646.94;;;8.63;59.01
46081;BME280;31821;51.880;-0.518;2022-11-21T02:38:37;99658.22;;;8.61;58.84
46081;BME280;31821;51.880;-0.518;2022-11-21T02:41:07;99653.47;;;8.53;58.67
46081;BME280;31821;51.880;-0.518;2022-11-21T02:43:47;99642.28;;;8.49;58.70
46081;BME280;31821;51.880;-0.518;2022-11-21T02:46:15;99615.97;;;8.34;58.65
46081;BME280;31821;51.880;-0.518;2022-11-21T02:48:40;99619.47;;;8.26;58.75
46081;BME280;31821;51.880;-0.518;2022-11-21T02:51:06;99638.03;;;8.43;58.20
46081;BME280;31821;51.880;-0.518;2022-11-21T02:53:31;99572.03;;;7.98;58.13
46081;BME280;31821;51.880;-0.518;2022-11-21T02:55:57;99532.66;;;7.80;58.84
46081;BME280;31821;51.880;-0.518;2022-11-21T02:58:22;99539.56;;;7.77;59.59
46081;BME280;31821;51.880;-0.518;2022-11-21T03:00:48;99528.28;;;7.78;58.92
46081;BME280;31821;51.880;-0.518;2022-11-21T03:03:13;99583.66;;;8.17;57.68
46081;BME280;31821;51.880;-0.518;2022-11-21T03:05:39;99593.78;;;8.08;58.12
46081;BME280;31821;51.880;-0.518;2022-11-21T03:08:05;99483.25;;;7.43;58.60
46081;BME280;31821;51.880;-0.518;2022-11-21T03:10:31;99595.97;;;8.20;59.72
46081;BME280;31821;51.880;-0.518;2022-11-21T03:12:56;99599.06;;;8.04;58.68
46081;BME280;31821;51.880;-0.518;2022-11-21T03:15:26;99531.75;;;7.70;58.64
46081;BME280;31821;51.880;-0.518;2022-11-21T03:17:53;99569.25;;;7.75;59.66
46081;BME280;31821;51.880;-0.518;2022-11-21T03:20:18;99575.34;;;7.86;59.44
46081;BME280;31821;51.880;-0.518;2022-11-21T03:22:44;99541.31;;;7.59;59.88
46081;BME280;31821;51.880;-0.518;2022-11-21T03:25:09;99562.66;;;7.76;60.09
46081;BME280;31821;51.880;-0.518;2022-11-21T03:27:35;99518.91;;;7.43;59.54
46081;BME280;31821;51.880;-0.518;2022-11-21T03:30:00;99548.88;;;7.39;59.19
46081;BME280;31821;51.880;-0.518;2022-11-21T03:32:26;99512.34;;;7.02;60.51
46081;BME280;31821;51.880;-0.518;2022-11-21T03:34:51;99506.75;;;6.79;61.43
46081;BME280;31821;51.880;-0.518;2022-11-21T03:37:17;99529.50;;;6.80;60.97
46081;BME280;31821;51.880;-0.518;2022-11-21T03:39:43;99478.94;;;6.44;61.87
46081;BME280;31821;51.880;-0.518;2022-11-21T03:42:08;99453.19;;;6.12;62.59
46081;BME280;31821;51.880;-0.518;2022-11-21T03:44:34;99511.69;;;6.63;61.55
46081;BME280;31821;51.880;-0.518;2022-11-21T03:46:59;99477.13;;;6.67;61.30
46081;BME280;31821;51.880;-0.518;2022-11-21T03:49:25;99455.31;;;6.76;62.47
46081;BME280;31821;51.880;-0.518;2022-11-21T03:51:50;99420.69;;;6.66;60.90
46081;BME280;31821;51.880;-0.518;2022-11-21T03:54:16;99464.72;;;6.98;61.32
46081;BME280;31821;51.880;-0.518;2022-11-21T03:56:41;99425.38;;;6.80;61.38
46081;BME280;31821;51.880;-0.518;2022-11-21T03:59:07;99455.50;;;7.08;60.52
46081;BME280;31821;51.880;-0.518;2022-11-21T04:01:32;99488.88;;;7.24;60.57
46081;BME280;31821;51.880;-0.518;2022-11-21T04:03:58;99411.16;;;6.78;60.47
46081;BME280;31821;51.880;-0.518;2022-11-21T04:06:24;99434.78;;;6.88;59.31
46081;BME280;31821;51.880;-0.518;2022-11-21T04:08:50;99433.50;;;6.57;60.17
46081;BME280;31821;51.880;-0.518;2022-11-21T04:11:16;99404.34;;;6.33;61.68
46081;BME280;31821;51.880;-0.518;2022-11-21T04:13:42;99391.97;;;6.22;61.76
46081;BME280;31821;51.880;-0.518;2022-11-21T04:16:08;99455.66;;;6.42;62.82
46081;BME280;31821;51.880;-0.518;2022-11-21T04:18:34;99400.88;;;6.14;62.48
46081;BME280;31821;51.880;-0.518;2022-11-21T04:21:02;99418.03;;;6.33;63.59
46081;BME280;31821;51.880;-0.518;2022-11-21T04:23:28;99419.69;;;6.48;62.48
46081;BME280;31821;51.880;-0.518;2022-11-21T04:25:54;99346.84;;;6.05;63.15
46081;BME280;31821;51.880;-0.518;2022-11-21T04:28:20;99403.16;;;6.53;61.84
46081;BME280;31821;51.880;-0.518;2022-11-21T04:30:45;99389.56;;;6.48;62.46
46081;BME280;31821;51.880;-0.518;2022-11-21T04:33:12;99344.19;;;6.00;62.67
46081;BME280;31821;51.880;-0.518;2022-11-21T04:35:38;99418.16;;;6.84;62.52
46081;BME280;31821;51.880;-0.518;2022-11-21T04:38:04;99386.00;;;6.62;62.64
46081;BME280;31821;51.880;-0.518;2022-11-21T04:40:30;99331.44;;;6.10;62.34
46081;BME280;31821;51.880;-0.518;2022-11-21T04:42:55;99367.56;;;6.53;61.94
46081;BME280;31821;51.880;-0.518;2022-11-21T04:45:21;99323.03;;;6.34;62.89
46081;BME280;31821;51.880;-0.518;2022-11-21T04:47:46;99320.91;;;6.45;61.39
46081;BME280;31821;51.880;-0.518;2022-11-21T04:50:15;99355.47;;;6.68;61.93
46081;BME280;31821;51.880;-0.518;2022-11-21T04:52:42;99308.50;;;6.47;62.05
46081;BME280;31821;51.880;-0.518;2022-11-21T04:55:08;99313.56;;;6.54;61.36
46081;BME280;31821;51.880;-0.518;2022-11-21T04:57:34;99323.41;;;6.69;61.42
46081;BME280;31821;51.880;-0.518;2022-11-21T05:00:00;99286.91;;;6.46;61.67
46081;BME280;31821;51.880;-0.518;2022-11-21T05:02:26;99318.75;;;6.70;60.76
46081;BME280;31821;51.880;-0.518;2022-11-21T05:04:51;99297.25;;;6.63;60.98
46081;BME280;31821;51.880;-0.518;2022-11-21T05:07:17;99360.75;;;7.15;60.57
46081;BME280;31821;51.880;-0.518;2022-11-21T05:09:42;99323.91;;;7.08;60.68
46081;BME280;31821;51.880;-0.518;2022-11-21T05:12:09;99341.63;;;7.24;60.42
46081;BME280;31821;51.880;-0.518;2022-11-21T05:14:53;99332.31;;;7.11;60.64
46081;BME280;31821;51.880;-0.518;2022-11-21T05:17:19;99319.28;;;6.94;61.09
46081;BME280;31821;51.880;-0.518;2022-11-21T05:19:45;99248.72;;;6.63;59.83
46081;BME280;31821;51.880;-0.518;2022-11-21T05:22:10;99274.03;;;6.83;60.79
46081;BME280;31821;51.880;-0.518;2022-11-21T05:24:36;99266.88;;;6.73;61.13
46081;BME280;31821;51.880;-0.518;2022-11-21T05:27:02;99269.56;;;6.87;62.82
46081;BME280;31821;51.880;-0.518;2022-11-21T05:29:27;99270.47;;;6.96;61.78
46081;BME280;31821;51.880;-0.518;2022-11-21T05:31:53;99281.59;;;7.00;60.60
46081;BME280;31821;51.880;-0.518;2022-11-21T05:34:18;99227.38;;;6.51;60.73
46081;BME280;31821;51.880;-0.518;2022-11-21T05:36:44;99180.19;;;6.18;62.10
46081;BME280;31821;51.880;-0.518;2022-11-21T05:39:09;99198.03;;;6.52;61.73
46081;BME280;31821;51.880;-0.518;2022-11-21T05:41:35;99238.31;;;6.88;61.95
46081;BME280;31821;51.880;-0.518;2022-11-21T05:44:00;99230.56;;;6.67;62.37
46081;BME280;31821;51.880;-0.518;2022-11-21T05:46:26;99056.75;;;5.55;64.08
46081;BME280;31821;51.880;-0.518;2022-11-21T05:48:53;99242.28;;;6.59;65.41
46081;BME280;31821;51.880;-0.518;2022-11-21T05:51:19;99249.31;;;6.97;63.28
46081;BME280;31821;51.880;-0.518;2022-11-21T05:53:45;99214.16;;;6.90;62.93
46081;BME280;31821;51.880;-0.518;2022-11-21T05:56:14;99169.63;;;6.62;62.72
46081;BME280;31821;51.880;-0.518;2022-11-21T05:58:40;99148.19;;;6.41;63.45
46081;BME280;31821;51.880;-0.518;2022-11-21T06:01:07;99226.28;;;6.98;64.16
46081;BME280;31821;51.880;-0.518;2022-11-21T06:03:36;99167.50;;;6.59;65.08
46081;BME280;31821;51.880;-0.518;2022-11-21T06:06:05;99202.75;;;6.97;64.45
46081;BME280;31821;51.880;-0.518;2022-11-21T06:08:33;99135.88;;;6.52;64.87
46081;BME280;31821;51.880;-0.518;2022-11-21T06:11:00;99121.41;;;6.38;65.44
46081;BME280;31821;51.880;-0.518;2022-11-21T06:13:26;99104.13;;;6.29;65.19
46081;BME280;31821;51.880;-0.518;2022-11-21T06:16:08;99163.38;;;6.47;66.53
46081;BME280;31821;51.880;-0.518;2022-11-21T06:18:36;99169.69;;;6.71;66.55
46081;BME280;31821;51.880;-0.518;2022-11-21T06:21:06;99133.94;;;6.76;65.64
46081;BME280;31821;51.880;-0.518;2022-11-21T06:23:32;99106.63;;;6.84;64.07
46081;BME280;31821;51.880;-0.518;2022-11-21T06:26:00;99128.47;;;7.07;64.27
46081;BME280;31821;51.880;-0.518;2022-11-21T06:28:29;99167.38;;;7.50;63.76
46081;BME280;31821;51.880;-0.518;2022-11-21T06:30:55;99113.81;;;7.03;64.71
46081;BME280;31821;51.880;-0.518;2022-11-21T06:33:20;99094.47;;;7.08;65.17
46081;BME280;31821;51.880;-0.518;2022-11-21T06:35:46;99104.25;;;7.32;63.59
46081;BME280;31821;51.880;-0.518;2022-11-21T06:38:11;99115.16;;;7.14;64.05
46081;BME280;31821;51.880;-0.518;2022-11-21T06:40:38;99088.91;;;7.22;63.40
46081;BME280;31821;51.880;-0.518;2022-11-21T06:43:04;99096.81;;;7.33;62.88
46081;BME280;31821;51.880;-0.518;2022-11-21T06:45:29;99095.47;;;7.12;64.08
46081;BME280;31821;51.880;-0.518;2022-11-21T06:47:55;99042.94;;;7.19;63.16
46081;BME280;31821;51.880;-0.518;2022-11-21T06:50:20;99028.31;;;7.41;62.20
46081;BME280;31821;51.880;-0.518;2022-11-21T06:52:47;99017.53;;;7.54;61.93
46081;BME280;31821;51.880;-0.518;2022-11-21T06:55:13;99040.16;;;7.77;61.25
46081;BME280;31821;51.880;-0.518;2022-11-21T06:57:38;98969.25;;;7.35;61.28
46081;BME280;31821;51.880;-0.518;2022-11-21T07:00:05;99048.69;;;7.84;61.73
46081;BME280;31821;51.880;-0.518;2022-11-21T07:02:30;99037.88;;;7.79;61.57
46081;BME280;31821;51.880;-0.518;2022-11-21T07:04:56;99027.38;;;7.64;60.57
46081;BME280;31821;51.880;-0.518;2022-11-21T07:07:21;99023.34;;;7.78;60.99
46081;BME280;31821;51.880;-0.518;2022-11-21T07:09:47;98966.19;;;7.54;61.16
46081;BME280;31821;51.880;-0.518;2022-11-21T07:12:13;99053.56;;;8.14;60.97
46081;BME280;31821;51.880;-0.518;2022-11-21T07:14:57;98992.81;;;7.45;62.59
46081;BME280;31821;51.880;-0.518;2022-11-21T07:17:22;98991.72;;;7.55;62.01
46081;BME280;31821;51.880;-0.518;2022-11-21T07:19:48;98962.47;;;7.33;61.92
46081;BME280;31821;51.880;-0.518;2022-11-21T07:22:13;98972.19;;;7.56;61.93
46081;BME280;31821;51.880;-0.518;2022-11-21T07:24:39;98929.09;;;7.39;61.87
46081;BME280;31821;51.880;-0.518;2022-11-21T07:27:04;99004.78;;;7.93;61.00
46081;BME280;31821;51.880;-0.518;2022-11-21T07:29:30;99006.91;;;7.87;62.15
46081;BME280;31821;51.880;-0.518;2022-11-21T07:31:55;98903.28;;;7.23;62.32
46081;BME280;31821;51.880;-0.518;2022-11-21T07:34:21;98914.75;;;7.42;62.21
46081;BME280;31821;51.880;-0.518;2022-11-21T07:36:46;98976.38;;;7.89;62.79
46081;BME280;31821;51.880;-0.518;2022-11-21T07:39:12;99001.25;;;7.84;64.09
46081;BME280;31821;51.880;-0.518;2022-11-21T07:41:37;99006.25;;;7.64;64.27
46081;BME280;31821;51.880;-0.518;2022-11-21T07:44:03;98920.97;;;6.99;66.16
46081;BME280;31821;51.880;-0.518;2022-11-21T07:46:28;98937.31;;;7.66;63.97
46081;BME280;31821;51.880;-0.518;2022-11-21T07:48:54;98910.22;;;7.29;64.50
46081;BME280;31821;51.880;-0.518;2022-11-21T07:51:19;98899.25;;;7.38;63.85
46081;BME280;31821;51.880;-0.518;2022-11-21T07:53:45;98876.50;;;7.11;64.20
46081;BME280;31821;51.880;-0.518;2022-11-21T07:56:11;98903.09;;;7.28;65.29
46081;BME280;31821;51.880;-0.518;2022-11-21T07:58:36;98968.97;;;7.89;64.79
46081;BME280;31821;51.880;-0.518;2022-11-21T08:01:03;98892.63;;;7.83;63.28
46081;BME280;31821;51.880;-0.518;2022-11-21T08:03:30;98883.59;;;7.73;64.39
46081;BME280;31821;51.880;-0.518;2022-11-21T08:05:56;98831.34;;;7.08;64.71
46081;BME280;31821;51.880;-0.518;2022-11-21T08:08:21;98878.44;;;7.72;64.35
46081;BME280;31821;51.880;-0.518;2022-11-21T08:10:47;98918.09;;;7.92;64.53
46081;BME280;31821;51.880;-0.518;2022-11-21T08:13:13;98917.97;;;8.45;63.23
46081;BME280;31821;51.880;-0.518;2022-11-21T08:15:39;98871.97;;;7.76;64.24
46081;BME280;31821;51.880;-0.518;2022-11-21T08:18:13;98831.34;;;7.43;65.21
46081;BME280;31821;51.880;-0.518;2022-11-21T08:20:39;98894.97;;;8.11;64.15
46081;BME280;31821;51.880;-0.518;2022-11-21T08:23:05;98881.72;;;8.13;64.20
46081;BME280;31821;51.880;-0.518;2022-11-21T08:25:32;98839.47;;;7.96;64.22
46081;BME280;31821;51.880;-0.518;2022-11-21T08:27:58;98858.69;;;7.96;65.24
46081;BME280;31821;51.880;-0.518;2022-11-21T08:30:24;98831.94;;;7.67;64.40
46081;BME280;31821;51.880;-0.518;2022-11-21T08:32:49;98889.34;;;8.07;65.27
46081;BME280;31821;51.880;-0.518;2022-11-21T08:35:15;98886.44;;;8.03;64.39
46081;BME280;31821;51.880;-0.518;2022-11-21T08:37:41;98858.22;;;7.94;64.25
46081;BME280;31821;51.880;-0.518;2022-11-21T08:40:06;98858.78;;;8.17;64.73
46081;BME280;31821;51.880;-0.518;2022-11-21T08:42:32;98861.53;;;8.17;64.10
46081;BME280;31821;51.880;-0.518;2022-11-21T08:44:57;98827.03;;;8.07;63.87
46081;BME280;31821;51.880;-0.518;2022-11-21T08:47:23;98788.34;;;8.21;64.38
46081;BME280;31821;51.880;-0.518;2022-11-21T08:49:48;98841.25;;;8.48;64.75
46081;BME280;31821;51.880;-0.518;2022-11-21T08:52:14;98836.53;;;8.10;64.85
46081;BME280;31821;51.880;-0.518;2022-11-21T08:54:42;98841.47;;;8.64;64.16
46081;BME280;31821;51.880;-0.518;2022-11-21T08:57:08;98772.50;;;8.27;64.45
46081;BME280;31821;51.880;-0.518;2022-11-21T08:59:34;98794.47;;;8.27;65.57
46081;BME280;31821;51.880;-0.518;2022-11-21T09:02:00;98793.75;;;8.09;65.50
46081;BME280;31821;51.880;-0.518;2022-11-21T09:04:25;98781.41;;;8.54;63.99
46081;BME280;31821;51.880;-0.518;2022-11-21T09:06:51;98784.91;;;8.33;65.07
46081;BME280;31821;51.880;-0.518;2022-11-21T09:09:16;98746.03;;;8.22;64.95
46081;BME280;31821;51.880;-0.518;2022-11-21T09:11:42;98699.50;;;7.96;65.00
46081;BME280;31821;51.880;-0.518;2022-11-21T09:14:07;98762.13;;;8.33;65.40
46081;BME280;31821;51.880;-0.518;2022-11-21T09:16:51;98735.06;;;8.22;65.28
46081;BME280;31821;51.880;-0.518;2022-11-21T09:19:35;98741.97;;;8.59;64.89
46081;BME280;31821;51.880;-0.518;2022-11-21T09:22:01;98753.03;;;8.71;65.70
46081;BME280;31821;51.880;-0.518;2022-11-21T09:24:26;98746.31;;;8.30;66.35
46081;BME280;31821;51.880;-0.518;2022-11-21T09:27:01;98721.38;;;8.14;65.85
46081;BME280;31821;51.880;-0.518;2022-11-21T09:29:26;98704.66;;;7.98;66.69
46081;BME280;31821;51.880;-0.518;2022-11-21T09:31:52;98684.50;;;8.23;66.58
46081;BME280;31821;51.880;-0.518;2022-11-21T09:34:17;98695.66;;;8.18;66.24
46081;BME280;31821;51.880;-0.518;2022-11-21T09:36:44;98715.72;;;8.40;66.24
46081;BME280;31821;51.880;-0.518;2022-11-21T09:39:09;98698.72;;;8.47;66.87
46081;BME280;31821;51.880;-0.518;2022-11-21T09:58:30;98649.38;;;8.59;66.98
46081;BME280;31821;51.880;-0.518;2022-11-21T10:00:57;98587.50;;;8.74;65.42
46081;BME280;31821;51.880;-0.518;2022-11-21T10:03:25;98612.31;;;8.65;65.82
46081;BME280;31821;51.880;-0.518;2022-11-21T10:05:57;98600.66;;;8.81;64.88
46081;BME280;31821;51.880;-0.518;2022-11-21T10:08:41;98591.31;;;8.94;65.40
46081;BME280;31821;51.880;-0.518;2022-11-21T10:11:23;98542.09;;;8.55;66.45
46081;BME280;31821;51.880;-0.518;2022-11-21T10:14:04;98551.66;;;8.83;66.02
46081;BME280;31821;51.880;-0.518;2022-11-21T10:19:39;98518.56;;;8.46;66.59
46081;BME280;31821;51.880;-0.518;2022-11-21T10:25:11;98553.41;;;8.54;68.42
46081;BME280;31821;51.880;-0.518;2022-11-21T10:27:40;98484.50;;;8.13;67.95
46081;BME280;31821;51.880;-0.518;2022-11-21T10:30:16;98515.78;;;8.54;68.35
46081;BME280;31821;51.880;-0.518;2022-11-21T10:32:45;98525.63;;;8.68;67.81
46081;BME280;31821;51.880;-0.518;2022-11-21T10:35:21;98485.84;;;8.99;66.43
46081;BME280;31821;51.880;-0.518;2022-11-21T10:37:51;98495.81;;;9.16;67.13
46081;BME280;31821;51.880;-0.518;2022-11-21T10:40:21;98462.09;;;8.57;68.08
46081;BME280;31821;51.880;-0.518;2022-11-21T10:42:56;98448.78;;;8.47;68.01
46081;BME280;31821;51.880;-0.518;2022-11-21T10:45:24;98488.94;;;9.10;66.37
46081;BME280;31821;51.880;-0.518;2022-11-21T10:47:52;98440.25;;;8.98;67.25
46081;BME280;31821;51.880;-0.518;2022-11-21T10:50:37;98423.19;;;8.80;67.52
46081;BME280;31821;51.880;-0.518;2022-11-21T10:56:13;98446.78;;;9.18;68.08
46081;BME280;31821;51.880;-0.518;2022-11-21T10:58:54;98418.81;;;8.91;68.63
46081;BME280;31821;51.880;-0.518;2022-11-21T11:01:25;98288.22;;;8.19;68.69
46081;BME280;31821;51.880;-0.518;2022-11-21T11:04:27;98425.47;;;9.15;67.62
46081;BME280;31821;51.880;-0.518;2022-11-21T11:06:53;98417.66;;;9.29;67.66
46081;BME280;31821;51.880;-0.518;2022-11-21T11:11:53;98405.44;;;8.90;69.42
46081;BME280;31821;51.880;-0.518;2022-11-21T11:14:38;98357.31;;;8.96;68.59
46081;BME280;31821;51.880;-0.518;2022-11-21T11:17:03;98369.13;;;9.09;70.07
46081;BME280;31821;51.880;-0.518;2022-11-21T11:19:29;98289.13;;;8.73;68.95
46081;BME280;31821;51.880;-0.518;2022-11-21T11:21:55;98342.97;;;9.27;69.30
46081;BME280;31821;51.880;-0.518;2022-11-21T11:24:22;98288.31;;;9.26;68.17
46081;BME280;31821;51.880;-0.518;2022-11-21T11:26:54;98322.06;;;8.98;70.65
46081;BME280;31821;51.880;-0.518;2022-11-21T11:29:30;98306.19;;;9.20;69.69
46081;BME280;31821;51.880;-0.518;2022-11-21T11:32:01;98276.88;;;9.24;69.56
46081;BME280;31821;51.880;-0.518;2022-11-21T11:34:39;98289.56;;;9.28;70.02
46081;BME280;31821;51.880;-0.518;2022-11-21T11:37:11;98225.25;;;9.05;69.39
46081;BME280;31821;51.880;-0.518;2022-11-21T11:42:31;98234.19;;;9.01;70.26
46081;BME280;31821;51.880;-0.518;2022-11-21T11:45:36;98221.66;;;8.88;71.29
46081;BME280;31821;51.880;-0.518;2022-11-21T11:48:23;98190.06;;;9.10;70.67
46081;BME280;31821;51.880;-0.518;2022-11-21T11:50:50;98222.41;;;9.29;69.93
46081;BME280;31821;51.880;-0.518;2022-11-21T11:53:37;98175.28;;;9.15;69.98
46081;BME280;31821;51.880;-0.518;2022-11-21T11:56:10;98174.97;;;9.64;68.59
46081;BME280;31821;51.880;-0.518;2022-11-21T11:58:46;98153.94;;;9.40;68.51
46081;BME280;31821;51.880;-0.518;2022-11-21T12:01:36;98193.13;;;9.37;69.42
46081;BME280;31821;51.880;-0.518;2022-11-21T12:04:18;98186.25;;;9.75;68.06
46081;BME280;31821;51.880;-0.518;2022-11-21T12:09:41;98157.66;;;9.32;69.01
46081;BME280;31821;51.880;-0.518;2022-11-21T12:20:35;98090.22;;;9.38;69.79
46081;BME280;31821;51.880;-0.518;2022-11-21T12:23:05;98026.97;;;9.22;68.96
46081;BME280;31821;51.880;-0.518;2022-11-21T12:25:37;98098.31;;;9.47;69.51
46081;BME280;31821;51.880;-0.518;2022-11-21T12:28:13;98099.91;;;10.00;68.66
46081;BME280;31821;51.880;-0.518;2022-11-21T12:30:52;98038.47;;;9.60;69.82
46081;BME280;31821;51.880;-0.518;2022-11-21T12:33:22;97960.97;;;9.22;69.61
46081;BME280;31821;51.880;-0.518;2022-11-21T12:39:01;98043.72;;;10.01;69.64
46081;BME280;31821;51.880;-0.518;2022-11-21T12:41:47;98023.78;;;9.72;69.45
46081;BME280;31821;51.880;-0.518;2022-11-21T12:44:53;97970.22;;;9.66;69.07
46081;BME280;31821;51.880;-0.518;2022-11-21T12:54:15;97921.13;;;9.87;70.51
46081;BME280;31821;51.880;-0.518;2022-11-21T12:57:20;97968.50;;;9.97;70.93
46081;BME280;31821;51.880;-0.518;2022-11-21T13:00:14;97969.28;;;9.77;71.16
46081;BME280;31821;51.880;-0.518;2022-11-21T13:05:49;97947.97;;;9.19;71.60
46081;BME280;31821;51.880;-0.518;2022-11-21T13:08:25;97924.53;;;10.00;70.12
46081;BME280;31821;51.880;-0.518;2022-11-21T13:14:06;97836.22;;;9.66;69.79
46081;BME280;31821;51.880;-0.518;2022-11-21T13:16:36;97887.75;;;10.32;68.94
46081;BME280;31821;51.880;-0.518;2022-11-21T13:19:24;97846.06;;;10.10;69.96
46081;BME280;31821;51.880;-0.518;2022-11-21T13:21:53;97858.53;;;9.84;70.10
46081;BME280;31821;51.880;-0.518;2022-11-21T13:27:35;97881.34;;;10.04;69.47
46081;BME280;31821;51.880;-0.518;2022-11-21T13:32:40;97858.91;;;10.25;69.75
46081;BME280;31821;51.880;-0.518;2022-11-21T13:38:01;97800.47;;;9.89;68.95
46081;BME280;31821;51.880;-0.518;2022-11-21T13:40:36;97827.13;;;10.08;70.04
46081;BME280;31821;51.880;-0.518;2022-11-21T13:45:43;97839.34;;;10.31;68.71
46081;BME280;31821;51.880;-0.518;2022-11-21T13:56:03;97809.88;;;10.35;68.85
46081;BME280;31821;51.880;-0.518;2022-11-21T13:58:53;97781.03;;;10.02;68.29
46081;BME280;31821;51.880;-0.518;2022-11-21T14:01:48;97785.09;;;10.35;68.65
46081;BME280;31821;51.880;-0.518;2022-11-21T14:06:51;97792.69;;;10.18;68.98
46081;BME280;31821;51.880;-0.518;2022-11-21T14:11:58;97752.78;;;10.32;68.94
46081;BME280;31821;51.880;-0.518;2022-11-21T14:17:52;97734.03;;;9.68;68.64
46081;BME280;31821;51.880;-0.518;2022-11-21T14:23:13;97746.19;;;10.13;68.08
46081;BME280;31821;51.880;-0.518;2022-11-21T14:25:46;97735.78;;;10.03;68.96
46081;BME280;31821;51.880;-0.518;2022-11-21T14:28:33;97699.19;;;9.75;67.41
46081;BME280;31821;51.880;-0.518;2022-11-21T14:31:03;97726.66;;;9.95;67.27
46081;BME280;31821;51.880;-0.518;2022-11-21T14:33:41;97711.63;;;9.46;69.59
46081;BME280;31821;51.880;-0.518;2022-11-21T14:36:18;97658.31;;;9.31;69.63
46081;BME280;31821;51.880;-0.518;2022-11-21T14:38:55;97697.06;;;9.65;69.56
46081;BME280;31821;51.880;-0.518;2022-11-21T14:41:25;97670.91;;;9.78;68.54